Time;durP1;ratioP1;P1;durP2;ratioP2;P2;SDS_P1;SDS_P2;PMS_P1;PMS_P2;Temp;Humidity;BMP_temperature;BMP_pressure;BME280_temperature;BME280_humidity;BME280_pressure;Samples;Min_cycle;Max_cycle;Signal;HPM_P1;HPM_P2
2023/08/30 00:00:43;;;;;;;24.00;13.10;;;;;;;-128.00;-1.00;-1.00;18872;296;7504890;-34
2023/08/30 00:03:09;;;;;;;24.10;13.50;;;;;;;-128.00;-1.00;-1.00;18880;285;7503996;-32
2023/08/30 00:05:38;;;;;;;27.70;11.70;;;;;;;-128.00;-1.00;-1.00;18883;340;7504841;-37
2023/08/30 00:08:04;;;;;;;19.00;8.10;;;;;;;-128.00;-1.00;-1.00;18502;289;7505893;-32
2023/08/30 00:10:30;;;;;;;23.40;10.30;;;;;;;-128.00;-1.00;-1.00;18470;297;7505542;-35
2023/08/30 00:12:56;;;;;;;19.30;10.80;;;;;;;-128.00;-1.00;-1.00;18883;289;7504588;-36
2023/08/30 00:15:22;;;;;;;26.90;13.50;;;;;;;-128.00;-1.00;-1.00;18864;298;7505010;-32
2023/08/30 00:17:51;;;;;;;14.10;9.40;;;;;;;-128.00;-1.00;-1.00;18893;289;7504060;-32
2023/08/30 00:20:18;;;;;;;20.10;11.70;;;;;;;-128.00;-1.00;-1.00;18459;285;7504223;-35
2023/08/30 00:22:43;;;;;;;22.30;10.60;;;;;;;-128.00;-1.00;-1.00;18479;296;7505696;-32
2023/08/30 00:25:09;;;;;;;18.00;11.80;;;;;;;-128.00;-1.00;-1.00;18474;289;7504144;-32
2023/08/30 00:27:35;;;;;;;23.20;12.50;;;;;;;-128.00;-1.00;-1.00;18886;285;7504765;-32
2023/08/30 00:30:02;;;;;;;17.00;11.40;;;;;;;-128.00;-1.00;-1.00;18871;289;7504944;-35
2023/08/30 00:32:28;;;;;;;20.80;10.80;;;;;;;-128.00;-1.00;-1.00;18458;312;7506070;-35
2023/08/30 00:34:54;;;;;;;12.20;7.60;;;;;;;-128.00;-1.00;-1.00;18850;296;7504671;-32
2023/08/30 01:18:55;;;;;;;24.10;10.30;;;;;;;-99.67;19.20;19673.57;19602;336;8045657;-34
2023/08/30 01:21:27;;;;;;;17.20;9.70;;;;;;;-128.00;-1.00;-1.00;18074;296;7506035;-32
2023/08/30 01:23:58;;;;;;;21.80;11.80;;;;;;;-128.00;-1.00;-1.00;18479;288;7504640;-35
2023/08/30 01:26:44;;;;;;;18.10;9.80;;;;;;;-128.00;-1.00;-1.00;18501;347;7504345;-35
2023/08/30 01:29:11;;;;;;;15.30;8.80;;;;;;;-128.00;-1.00;-1.00;18495;294;7503988;-33
2023/08/30 01:31:38;;;;;;;18.90;10.50;;;;;;;-128.00;-1.00;-1.00;18463;294;7504120;-35
2023/08/30 01:34:04;;;;;;;15.70;9.50;;;;;;;-128.00;-1.00;-1.00;18508;287;7504845;-34
2023/08/30 01:36:30;;;;;;;21.70;11.50;;;;;;;-128.00;-1.00;-1.00;18472;294;7505164;-35
2023/08/30 01:38:57;;;;;;;16.80;8.90;;;;;;;-128.00;-1.00;-1.00;18467;294;7504526;-34
2023/08/30 01:41:23;;;;;;;20.60;10.00;;;;;;;-128.00;-1.00;-1.00;18471;295;7504922;-34
2023/08/30 01:43:49;;;;;;;17.20;9.70;;;;;;;-128.00;-1.00;-1.00;18879;323;7504736;-32
2023/08/30 01:46:15;;;;;;;19.90;11.10;;;;;;;-128.00;-1.00;-1.00;18846;295;7504558;-34
2023/08/30 01:48:42;;;;;;;18.80;9.80;;;;;;;-128.00;-1.00;-1.00;18870;295;7504369;-33
2023/08/30 01:51:08;;;;;;;20.40;10.50;;;;;;;-128.00;-1.00;-1.00;18870;335;7504857;-32
2023/08/30 01:53:34;;;;;;;16.30;9.60;;;;;;;-128.00;-1.00;-1.00;18919;294;7505007;-33
2023/08/30 01:56:00;;;;;;;21.10;10.90;;;;;;;-128.00;-1.00;-1.00;18476;299;7504340;-32
2023/08/30 01:58:26;;;;;;;24.60;11.50;;;;;;;-128.00;-1.00;-1.00;18482;295;7505732;-34
2023/08/30 02:00:52;;;;;;;20.80;10.10;;;;;;;-128.00;-1.00;-1.00;18902;295;7504725;-32
2023/08/30 02:03:18;;;;;;;17.00;8.70;;;;;;;-128.00;-1.00;-1.00;18467;295;7505302;-34
2023/08/30 02:06:01;;;;;;;19.00;10.70;;;;;;;-128.00;-1.00;-1.00;18858;310;7505715;-32
2023/08/30 02:08:34;;;;;;;15.70;9.70;;;;;;;-128.00;-1.00;-1.00;18484;294;7504629;-34
2023/08/30 02:11:02;;;;;;;19.40;9.90;;;;;;;-128.00;-1.00;-1.00;18459;294;7504828;-31
2023/08/30 02:13:28;;;;;;;16.70;9.90;;;;;;;-128.00;-1.00;-1.00;18450;294;7505985;-34
2023/08/30 02:15:55;;;;;;;21.70;8.80;;;;;;;-128.00;-1.00;-1.00;18457;335;7506199;-31
2023/08/30 02:18:21;;;;;;;17.20;9.00;;;;;;;-128.00;-1.00;-1.00;18475;288;7504696;-33
2023/08/30 02:20:47;;;;;;;20.50;10.90;;;;;;;-128.00;-1.00;-1.00;18879;295;7504185;-36
2023/08/30 02:23:13;;;;;;;23.00;10.60;;;;;;;-128.00;-1.00;-1.00;18894;295;7504700;-33
2023/08/30 02:25:39;;;;;;;23.80;11.60;;;;;;;-128.00;-1.00;-1.00;18884;303;7504447;-35
2023/08/30 02:28:05;;;;;;;16.50;9.90;;;;;;;-128.00;-1.00;-1.00;18841;347;7505321;-33
2023/08/30 02:30:32;;;;;;;18.70;9.90;;;;;;;-128.00;-1.00;-1.00;18852;318;7504750;-36
2023/08/30 02:32:58;;;;;;;19.60;9.50;;;;;;;-128.00;-1.00;-1.00;18857;288;7504101;-36
2023/08/30 02:35:24;;;;;;;17.40;9.80;;;;;;;-128.00;-1.00;-1.00;18837;295;7504757;-36
2023/08/30 02:37:50;;;;;;;19.20;10.10;;;;;;;-128.00;-1.00;-1.00;18866;295;7504435;-36
2023/08/30 02:40:17;;;;;;;17.10;9.40;;;;;;;-128.00;-1.00;-1.00;18866;295;7504744;-36
2023/08/30 02:42:43;;;;;;;18.80;10.80;;;;;;;-128.00;-1.00;-1.00;18881;288;7504732;-35
2023/08/30 02:45:09;;;;;;;21.70;10.80;;;;;;;-128.00;-1.00;-1.00;18921;295;7504594;-35
2023/08/30 02:47:35;;;;;;;23.90;10.80;;;;;;;-128.00;-1.00;-1.00;18911;288;7505782;-33
2023/08/30 02:50:02;;;;;;;19.30;9.50;;;;;;;-128.00;-1.00;-1.00;18863;295;7504600;-36
2023/08/30 02:52:28;;;;;;;14.60;8.50;;;;;;;-128.00;-1.00;-1.00;18870;295;7505021;-33
2023/08/30 02:54:55;;;;;;;26.40;10.20;;;;;;;-128.00;-1.00;-1.00;18898;340;7504355;-33
2023/08/30 02:57:21;;;;;;;17.20;9.00;;;;;;;-128.00;-1.00;-1.00;18855;295;7504463;-33
2023/08/30 02:59:47;;;;;;;13.60;7.50;;;;;;;-128.00;-1.00;-1.00;18883;287;7504429;-35
2023/08/30 03:02:13;;;;;;;16.80;8.40;;;;;;;-128.00;-1.00;-1.00;18873;295;7505531;-33
2023/08/30 03:04:39;;;;;;;19.60;9.60;;;;;;;-128.00;-1.00;-1.00;18884;287;7504610;-32
2023/08/30 03:07:05;;;;;;;12.30;6.20;;;;;;;-128.00;-1.00;-1.00;18888;318;7505583;-32
2023/08/30 03:09:32;;;;;;;18.40;9.40;;;;;;;-128.00;-1.00;-1.00;18874;295;7505139;-35
2023/08/30 03:11:58;;;;;;;12.30;6.40;;;;;;;-128.00;-1.00;-1.00;18898;288;7504646;-31
2023/08/30 03:14:24;;;;;;;16.00;7.80;;;;;;;-128.00;-1.00;-1.00;18478;295;7504139;-35
2023/08/30 03:16:50;;;;;;;15.50;7.70;;;;;;;-128.00;-1.00;-1.00;18886;288;7505822;-32
2023/08/30 03:19:17;;;;;;;16.60;7.60;;;;;;;-128.00;-1.00;-1.00;18904;288;7504645;-32
2023/08/30 03:21:43;;;;;;;11.40;6.60;;;;;;;-128.00;-1.00;-1.00;18475;295;7507012;-32
2023/08/30 03:24:09;;;;;;;10.10;5.40;;;;;;;-128.00;-1.00;-1.00;18473;295;7506026;-34
2023/08/30 03:26:34;;;;;;;13.10;7.60;;;;;;;-128.00;-1.00;-1.00;18508;295;7504347;-32
2023/08/30 03:29:00;;;;;;;25.40;8.30;;;;;;;-128.00;-1.00;-1.00;18469;295;7504668;-33
2023/08/30 03:31:26;;;;;;;12.30;7.00;;;;;;;-128.00;-1.00;-1.00;18876;296;7504298;-32
2023/08/30 03:33:52;;;;;;;16.10;7.70;;;;;;;-128.00;-1.00;-1.00;18869;295;7504444;-33
2023/08/30 03:36:19;;;;;;;25.40;10.00;;;;;;;-128.00;-1.00;-1.00;18849;295;7504320;-33
2023/08/30 03:38:45;;;;;;;16.40;8.10;;;;;;;-128.00;-1.00;-1.00;18881;295;7504617;-35
2023/08/30 03:41:12;;;;;;;24.30;8.80;;;;;;;-128.00;-1.00;-1.00;18872;336;7505136;-32
2023/08/30 03:43:38;;;;;;;13.00;7.90;;;;;;;-128.00;-1.00;-1.00;18878;347;7504419;-35
2023/08/30 03:46:04;;;;;;;17.80;8.90;;;;;;;-128.00;-1.00;-1.00;18898;288;7505401;-35
2023/08/30 03:48:31;;;;;;;19.60;10.00;;;;;;;-128.00;-1.00;-1.00;18874;288;7504777;-35
2023/08/30 03:50:57;;;;;;;15.70;8.40;;;;;;;-128.00;-1.00;-1.00;18888;288;7504983;-32
2023/08/30 03:53:24;;;;;;;12.50;7.50;;;;;;;-128.00;-1.00;-1.00;18871;319;7505323;-35
2023/08/30 03:55:50;;;;;;;27.30;9.30;;;;;;;-128.00;-1.00;-1.00;18890;295;7505597;-35
2023/08/30 03:58:18;;;;;;;22.70;9.40;;;;;;;-128.00;-1.00;-1.00;18890;296;7504141;-32
2023/08/30 04:00:43;;;;;;;14.50;8.00;;;;;;;-128.00;-1.00;-1.00;18464;296;7504521;-32
2023/08/30 04:03:09;;;;;;;15.80;7.30;;;;;;;-128.00;-1.00;-1.00;18483;288;7506218;-33
2023/08/30 04:05:36;;;;;;;16.80;9.30;;;;;;;-128.00;-1.00;-1.00;18460;295;7506129;-36
2023/08/30 04:08:02;;;;;;;24.80;10.30;;;;;;;-128.00;-1.00;-1.00;18480;295;7506032;-36
2023/08/30 04:10:28;;;;;;;12.10;4.80;;;;;;;-128.00;-1.00;-1.00;18508;319;7504334;-36
2023/08/30 04:12:54;;;;;;;20.40;8.10;;;;;;;-128.00;-1.00;-1.00;18486;287;7506836;-32
2023/08/30 04:15:20;;;;;;;13.70;5.80;;;;;;;-128.00;-1.00;-1.00;18464;289;7504880;-36
2023/08/30 04:17:46;;;;;;;13.80;5.80;;;;;;;-128.00;-1.00;-1.00;18882;318;7505437;-34
2023/08/30 04:20:12;;;;;;;26.60;11.10;;;;;;;-128.00;-1.00;-1.00;18886;295;7504646;-33
2023/08/30 04:22:38;;;;;;;16.90;8.90;;;;;;;-128.00;-1.00;-1.00;18875;296;7504625;-36
2023/08/30 04:25:05;;;;;;;11.40;5.90;;;;;;;-128.00;-1.00;-1.00;18901;295;7506004;-36
2023/08/30 04:27:31;;;;;;;5.50;3.50;;;;;;;-128.00;-1.00;-1.00;18482;287;7506073;-36
2023/08/30 04:29:57;;;;;;;6.30;3.90;;;;;;;-128.00;-1.00;-1.00;18472;344;7505751;-35
2023/08/30 04:32:22;;;;;;;5.50;3.10;;;;;;;-128.00;-1.00;-1.00;18471;295;7505304;-32
2023/08/30 04:34:48;;;;;;;6.80;3.30;;;;;;;-128.00;-1.00;-1.00;18899;295;7505485;-32
2023/08/30 04:37:15;;;;;;;7.70;4.50;;;;;;;-128.00;-1.00;-1.00;18862;295;7504651;-32
2023/08/30 04:39:41;;;;;;;4.40;2.50;;;;;;;-128.00;-1.00;-1.00;18881;295;7505379;-32
2023/08/30 04:42:07;;;;;;;11.20;4.80;;;;;;;-128.00;-1.00;-1.00;18865;288;7505537;-33
2023/08/30 04:44:33;;;;;;;6.70;3.30;;;;;;;-128.00;-1.00;-1.00;18859;288;7504861;-32
2023/08/30 04:47:00;;;;;;;19.00;4.70;;;;;;;-128.00;-1.00;-1.00;18892;288;7504328;-32
2023/08/30 04:49:26;;;;;;;6.80;2.60;;;;;;;-128.00;-1.00;-1.00;18891;295;7504667;-32
2023/08/30 04:51:52;;;;;;;4.30;2.80;;;;;;;-128.00;-1.00;-1.00;18901;295;7505412;-36
2023/08/30 04:54:18;;;;;;;4.20;2.00;;;;;;;-128.00;-1.00;-1.00;18884;335;7504864;-36
2023/08/30 04:56:45;;;;;;;2.60;1.80;;;;;;;-128.00;-1.00;-1.00;18894;330;7504385;-33
2023/08/30 04:59:11;;;;;;;1.70;1.20;;;;;;;-128.00;-1.00;-1.00;18867;295;7504315;-36
2023/08/30 05:01:38;;;;;;;7.70;4.50;;;;;;;-128.00;-1.00;-1.00;18473;340;7506221;-33
2023/08/30 05:04:05;;;;;;;15.30;3.00;;;;;;;-128.00;-1.00;-1.00;18461;311;7506542;-33
2023/08/30 05:06:31;;;;;;;2.00;1.50;;;;;;;-128.00;-1.00;-1.00;18497;295;7504792;-33
2023/08/30 05:08:58;;;;;;;2.00;1.40;;;;;;;-128.00;-1.00;-1.00;18462;297;7505944;-33
2023/08/30 05:11:23;;;;;;;1.80;1.30;;;;;;;-128.00;-1.00;-1.00;18465;295;7504704;-33
2023/08/30 05:13:49;;;;;;;4.20;2.10;;;;;;;-128.00;-1.00;-1.00;18490;288;7504372;-33
2023/08/30 05:16:15;;;;;;;3.70;1.80;;;;;;;-128.00;-1.00;-1.00;18882;296;7504317;-35
2023/08/30 05:18:41;;;;;;;2.20;1.10;;;;;;;-128.00;-1.00;-1.00;18852;295;7504307;-34
2023/08/30 05:21:07;;;;;;;3.80;2.40;;;;;;;-128.00;-1.00;-1.00;18875;295;7504408;-31
2023/08/30 05:23:34;;;;;;;3.10;1.90;;;;;;;-128.00;-1.00;-1.00;18896;288;7505485;-35
2023/08/30 05:26:00;;;;;;;2.20;1.50;;;;;;;-128.00;-1.00;-1.00;18878;307;7504930;-35
2023/08/30 05:28:26;;;;;;;3.50;2.20;;;;;;;-128.00;-1.00;-1.00;18457;295;7504602;-32
2023/08/30 05:30:53;;;;;;;6.00;3.70;;;;;;;-128.00;-1.00;-1.00;18844;295;7504244;-36
2023/08/30 05:33:19;;;;;;;3.70;2.30;;;;;;;-128.00;-1.00;-1.00;18885;295;7504859;-33
2023/08/30 05:35:45;;;;;;;7.10;4.20;;;;;;;-128.00;-1.00;-1.00;18461;295;7505346;-35
2023/08/30 05:38:11;;;;;;;3.20;2.50;;;;;;;-128.00;-1.00;-1.00;18887;288;7504483;-35
2023/08/30 05:40:42;;;;;;;8.20;4.10;;;;;;;-128.00;-1.00;-1.00;18858;295;7505394;-33
2023/08/30 05:43:08;;;;;;;2.30;1.70;;;;;;;-128.00;-1.00;-1.00;18493;288;7504853;-35
2023/08/30 05:45:33;;;;;;;4.60;4.00;;;;;;;-128.00;-1.00;-1.00;18461;295;7504396;-35
2023/08/30 05:48:00;;;;;;;5.50;3.80;;;;;;;-128.00;-1.00;-1.00;18853;287;7504521;-33
2023/08/30 05:50:26;;;;;;;4.90;2.80;;;;;;;-128.00;-1.00;-1.00;18872;335;7504792;-35
2023/08/30 05:52:53;;;;;;;7.00;4.30;;;;;;;-128.00;-1.00;-1.00;18883;295;7505936;-32
2023/08/30 05:55:20;;;;;;;5.20;3.80;;;;;;;-128.00;-1.00;-1.00;18510;347;7504252;-35
2023/08/30 05:57:45;;;;;;;6.90;4.40;;;;;;;-128.00;-1.00;-1.00;18472;295;7505758;-35
2023/08/30 06:00:13;;;;;;;8.30;4.10;;;;;;;-128.00;-1.00;-1.00;18885;289;7505676;-33
2023/08/30 06:02:40;;;;;;;6.80;4.50;;;;;;;-128.00;-1.00;-1.00;18465;295;7504782;-32
2023/08/30 06:05:06;;;;;;;5.70;3.70;;;;;;;-128.00;-1.00;-1.00;18468;288;7504719;-32
2023/08/30 06:07:31;;;;;;;4.70;3.00;;;;;;;-128.00;-1.00;-1.00;18493;311;7504382;-32
2023/08/30 06:09:57;;;;;;;3.80;2.70;;;;;;;-128.00;-1.00;-1.00;18471;347;7504411;-32
2023/08/30 06:12:23;;;;;;;4.90;4.00;;;;;;;-128.00;-1.00;-1.00;18468;295;7504298;-32
2023/08/30 06:14:52;;;;;;;3.70;3.20;;;;;;;-128.00;-1.00;-1.00;18448;326;7504609;-32
2023/08/30 06:17:20;;;;;;;3.00;2.60;;;;;;;-128.00;-1.00;-1.00;18471;295;7504312;-33
2023/08/30 06:19:47;;;;;;;3.90;3.10;;;;;;;-128.00;-1.00;-1.00;18489;318;7504364;-36
2023/08/30 06:22:13;;;;;;;4.00;3.10;;;;;;;-128.00;-1.00;-1.00;18482;285;7506181;-35
2023/08/30 06:24:39;;;;;;;3.70;3.10;;;;;;;-128.00;-1.00;-1.00;18459;304;7504168;-35
2023/08/30 06:27:04;;;;;;;5.20;3.40;;;;;;;-128.00;-1.00;-1.00;18447;287;7505172;-33
2023/08/30 06:29:30;;;;;;;4.90;4.40;;;;;;;-128.00;-1.00;-1.00;18482;295;7504743;-35
2023/08/30 06:31:56;;;;;;;3.70;2.80;;;;;;;-128.00;-1.00;-1.00;18471;295;7505500;-35
2023/08/30 06:34:22;;;;;;;2.40;2.20;;;;;;;-128.00;-1.00;-1.00;18506;336;7504433;-32
2023/08/30 06:36:48;;;;;;;2.30;1.90;;;;;;;-128.00;-1.00;-1.00;18495;295;7504300;-35
2023/08/30 06:39:13;;;;;;;3.40;2.80;;;;;;;-128.00;-1.00;-1.00;18463;295;7504289;-33
2023/08/30 06:41:39;;;;;;;2.50;1.80;;;;;;;-128.00;-1.00;-1.00;18496;288;7506168;-35
2023/08/30 06:44:05;;;;;;;4.30;3.30;;;;;;;-128.00;-1.00;-1.00;18879;307;7504333;-35
2023/08/30 06:46:31;;;;;;;3.30;2.80;;;;;;;-128.00;-1.00;-1.00;18458;295;7504400;-35
2023/08/30 06:48:57;;;;;;;3.60;2.70;;;;;;;-128.00;-1.00;-1.00;18862;295;7505042;-35
2023/08/30 06:51:24;;;;;;;2.70;2.40;;;;;;;-128.00;-1.00;-1.00;18886;307;7504519;-33
2023/08/30 06:53:50;;;;;;;7.80;2.30;;;;;;;-128.00;-1.00;-1.00;18897;295;7504364;-35
2023/08/30 06:56:16;;;;;;;1.70;1.00;;;;;;;-128.00;-1.00;-1.00;18501;288;7504471;-37
2023/08/30 06:58:42;;;;;;;2.40;2.10;;;;;;;-128.00;-1.00;-1.00;18478;295;7504403;-37
2023/08/30 07:01:08;;;;;;;4.10;3.40;;;;;;;-128.00;-1.00;-1.00;18869;335;7505045;-31
2023/08/30 07:03:34;;;;;;;6.60;4.20;;;;;;;-128.00;-1.00;-1.00;18897;288;7504541;-35
2023/08/30 07:06:00;;;;;;;3.60;3.00;;;;;;;-128.00;-1.00;-1.00;18873;295;7504424;-34
2023/08/30 07:08:26;;;;;;;3.20;2.70;;;;;;;-128.00;-1.00;-1.00;18904;295;7504600;-31
2023/08/30 07:10:53;;;;;;;3.00;2.20;;;;;;;-128.00;-1.00;-1.00;18909;288;7504863;-31
2023/08/30 07:13:19;;;;;;;2.60;2.10;;;;;;;-128.00;-1.00;-1.00;18879;295;7505253;-34
2023/08/30 07:15:46;;;;;;;8.20;3.90;;;;;;;-128.00;-1.00;-1.00;18485;289;7504809;-31
2023/08/30 07:18:12;;;;;;;4.30;3.30;;;;;;;-128.00;-1.00;-1.00;18483;295;7504247;-34
2023/08/30 07:20:39;;;;;;;4.80;3.90;;;;;;;-128.00;-1.00;-1.00;18474;295;7505055;-35
2023/08/30 07:23:04;;;;;;;4.60;2.90;;;;;;;-128.00;-1.00;-1.00;18469;303;7506016;-35
2023/08/30 07:25:32;;;;;;;5.20;4.60;;;;;;;-128.00;-1.00;-1.00;18881;295;7504787;-35
2023/08/30 07:27:59;;;;;;;4.90;4.20;;;;;;;-128.00;-1.00;-1.00;18482;295;7505787;-33
2023/08/30 07:30:25;;;;;;;2.50;2.20;;;;;;;-128.00;-1.00;-1.00;18480;288;7505978;-33
2023/08/30 07:32:51;;;;;;;7.70;3.20;;;;;;;-128.00;-1.00;-1.00;18470;300;7505176;-34
2023/08/30 07:35:17;;;;;;;3.20;2.80;;;;;;;-128.00;-1.00;-1.00;18883;295;7505079;-33
2023/08/30 07:37:43;;;;;;;3.00;2.60;;;;;;;-128.00;-1.00;-1.00;18890;288;7504329;-36
2023/08/30 07:40:11;;;;;;;3.40;2.80;;;;;;;-128.00;-1.00;-1.00;18868;285;7505357;-36
2023/08/30 07:42:36;;;;;;;1.80;1.60;;;;;;;-128.00;-1.00;-1.00;18458;295;7506084;-36
2023/08/30 07:45:04;;;;;;;5.30;2.50;;;;;;;-128.00;-1.00;-1.00;18458;295;7507156;-36
2023/08/30 07:47:29;;;;;;;3.10;2.50;;;;;;;-128.00;-1.00;-1.00;18471;295;7505946;-33
2023/08/30 07:49:55;;;;;;;2.60;2.20;;;;;;;-128.00;-1.00;-1.00;18504;295;7505459;-36
2023/08/30 07:52:21;;;;;;;2.40;2.10;;;;;;;-128.00;-1.00;-1.00;18886;295;7505116;-33
2023/08/30 07:54:48;;;;;;;4.50;2.40;;;;;;;-128.00;-1.00;-1.00;18861;299;7505041;-32
2023/08/30 07:57:14;;;;;;;7.20;1.80;;;;;;;-128.00;-1.00;-1.00;18909;295;7505483;-31
2023/08/30 07:59:41;;;;;;;2.50;1.60;;;;;;;-128.00;-1.00;-1.00;18892;296;7504312;-33
2023/08/30 08:02:07;;;;;;;8.10;3.10;;;;;;;-128.00;-1.00;-1.00;18457;295;7504226;-35
2023/08/30 08:04:34;;;;;;;2.80;2.50;;;;;;;-128.00;-1.00;-1.00;18470;295;7505065;-32
2023/08/30 08:07:00;;;;;;;4.10;3.60;;;;;;;-128.00;-1.00;-1.00;18509;295;7505143;-31
2023/08/30 08:09:26;;;;;;;2.90;2.50;;;;;;;-128.00;-1.00;-1.00;18479;287;7505846;-34
2023/08/30 08:11:51;;;;;;;3.30;3.00;;;;;;;-128.00;-1.00;-1.00;18483;295;7504933;-33
2023/08/30 08:14:17;;;;;;;4.70;3.50;;;;;;;-128.00;-1.00;-1.00;18468;295;7504516;-35
2023/08/30 08:19:59;;;;;;;14.60;3.40;;;;;;;;;;100997;301;543232;-31
2023/08/30 08:22:24;;;;;;;4.80;3.10;;;;;;;;;;101317;302;24244;-31
2023/08/30 08:24:51;;;;;;;5.70;2.90;;;;;;;;;;101008;302;22883;-31
2023/08/30 08:27:17;;;;;;;3.00;2.70;;;;;;;;;;101184;302;24298;-31
2023/08/30 08:29:42;;;;;;;3.50;3.10;;;;;;;;;;101249;302;22598;-32
2023/08/30 08:32:08;;;;;;;4.20;3.70;;;;;;;;;;100998;302;22638;-34
2023/08/30 08:34:34;;;;;;;2.60;2.20;;;;;;;;;;100535;289;659379;-30
2023/08/30 08:36:59;;;;;;;3.00;2.70;;;;;;;;;;101071;300;24269;-34
2023/08/30 08:39:25;;;;;;;4.50;2.30;;;;;;;;;;101165;289;22886;-33
2023/08/30 08:41:52;;;;;;;2.50;2.30;;;;;;;;;;101048;300;22581;-30
2023/08/30 08:44:18;;;;;;;2.40;1.80;;;;;;;;;;101226;289;22590;-30
2023/08/30 08:46:44;;;;;;;2.50;2.30;;;;;;;;;;101111;301;22530;-33
2023/08/30 08:49:16;;;;;;;4.00;2.80;;;;;;;;;;101284;300;22580;-34
2023/08/30 08:51:42;;;;;;;4.00;3.30;;;;;;;;;;101237;289;22580;-32
2023/08/30 08:54:11;;;;;;;2.10;1.80;;;;;;;;;;101148;289;22892;-36
2023/08/30 08:56:37;;;;;;;4.00;3.70;;;;;;;;;;101098;289;25174;-32
2023/08/30 08:59:03;;;;;;;2.80;1.50;;;;;;;;;;101041;289;21549;-32
2023/08/30 09:01:28;;;;;;;3.90;1.30;;;;;;;;;;101197;289;22680;-36
2023/08/30 09:03:54;;;;;;;2.70;1.60;;;;;;;;;;100984;289;22595;-36
2023/08/30 09:06:20;;;;;;;2.00;1.60;;;;;;;;;;101080;300;22576;-32
2023/08/30 09:08:46;;;;;;;2.40;1.70;;;;;;;;;;101152;300;22672;-36
2023/08/30 09:11:11;;;;;;;7.40;1.40;;;;;;;;;;101197;300;24360;-33
2023/08/30 09:13:36;;;;;;;1.30;0.90;;;;;;;;;;101177;302;24216;-36
2023/08/30 09:16:05;;;;;;;4.00;2.60;;;;;;;;;;101167;300;24149;-37
2023/08/30 09:18:31;;;;;;;2.20;1.80;;;;;;;;;;101145;301;22996;-33
2023/08/30 09:21:08;;;;;;;2.30;1.40;;;;;;;;;;101265;289;24298;-35
2023/08/30 09:23:34;;;;;;;2.70;2.10;;;;;;;;;;101297;300;24165;-35
2023/08/30 09:26:00;;;;;;;3.10;2.80;;;;;;;;;;101074;289;22679;-34
2023/08/30 09:28:26;;;;;;;5.70;4.00;;;;;;;;;;101430;301;22927;-32
2023/08/30 09:30:51;;;;;;;3.40;2.40;;;;;;;;;;101070;301;22887;-35
2023/08/30 09:33:21;;;;;;;2.40;1.50;;;;;;;;;;101021;300;23131;-35
2023/08/30 09:35:47;;;;;;;1.80;1.60;;;;;;;;;;101004;289;22599;-35
2023/08/30 09:38:17;;;;;;;2.30;1.50;;;;;;;;;;100984;290;22995;-35
2023/08/30 09:40:43;;;;;;;1.60;1.40;;;;;;;;;;101072;300;22622;-35
2023/08/30 09:43:09;;;;;;;3.00;2.10;;;;;;;;;;101225;300;24269;-34
2023/08/30 09:45:34;;;;;;;1.90;1.30;;;;;;;;;;101242;300;23019;-38
2023/08/30 09:48:01;;;;;;;1.30;1.10;;;;;;;;;;101144;300;22892;-32
2023/08/30 09:50:26;;;;;;;3.30;1.50;;;;;;;;;;101353;300;24267;-32
2023/08/30 09:52:52;;;;;;;3.60;1.80;;;;;;;;;;101140;289;22681;-33
2023/08/30 09:55:18;;;;;;;8.00;2.40;;;;;;;;;;101010;300;22892;-32
2023/08/30 09:57:44;;;;;;;1.30;1.00;;;;;;;;;;101195;300;22982;-35
2023/08/30 10:00:12;;;;;;;3.10;2.50;;;;;;;;;;101059;301;23017;-35
2023/08/30 10:02:40;;;;;;;2.30;0.60;;;;;;;;;;101321;300;22642;-35
2023/08/30 10:05:06;;;;;;;1.20;0.90;;;;;;;;;;101168;300;22579;-32
2023/08/30 10:07:31;;;;;;;1.00;0.80;;;;;;;;;;101222;300;22889;-34
2023/08/30 10:09:57;;;;;;;1.20;1.00;;;;;;;;;;101226;300;22718;-34
2023/08/30 10:12:22;;;;;;;1.50;1.20;;;;;;;;;;101096;300;22735;-32
2023/08/30 10:14:48;;;;;;;1.80;1.40;;;;;;;;;;101250;300;22583;-30
2023/08/30 10:17:13;;;;;;;1.80;1.10;;;;;;;;;;101319;300;22701;-35
2023/08/30 10:19:39;;;;;;;2.60;1.40;;;;;;;;;;101075;301;23012;-35
2023/08/30 10:22:05;;;;;;;1.30;0.80;;;;;;;;;;101122;301;24291;-33
2023/08/30 10:24:39;;;;;;;2.20;1.00;;;;;;;;;;101063;300;22701;-32
2023/08/30 10:27:05;;;;;;;3.40;1.50;;;;;;;;;;101294;300;22641;-32
2023/08/30 10:29:31;;;;;;;1.30;0.90;;;;;;;;;;101020;289;22622;-34
2023/08/30 10:32:01;;;;;;;2.60;0.90;;;;;;;;;;101313;300;22835;-32
2023/08/30 10:34:31;;;;;;;2.10;1.90;;;;;;;;;;101123;301;22676;-32
2023/08/30 10:36:57;;;;;;;1.80;1.70;;;;;;;;;;101267;300;22592;-35
2023/08/30 10:39:27;;;;;;;2.20;1.10;;;;;;;;;;101280;300;22679;-32
2023/08/30 10:41:56;;;;;;;1.20;1.00;;;;;;;;;;100922;302;22580;-32
2023/08/30 10:44:22;;;;;;;2.10;0.80;;;;;;;;;;101189;300;22676;-32
2023/08/30 10:46:51;;;;;;;0.90;0.70;;;;;;;;;;101108;300;22535;-37
2023/08/30 10:49:18;;;;;;;0.90;0.80;;;;;;;;;;101226;300;22596;-30
2023/08/30 10:51:47;;;;;;;0.80;0.50;;;;;;;;;;101028;301;22676;-32
2023/08/30 10:54:16;;;;;;;0.50;0.50;;;;;;;;;;101412;301;22623;-31
2023/08/30 10:56:47;;;;;;;0.80;0.50;;;;;;;;;;100988;300;22872;-34
2023/08/30 10:59:19;;;;;;;0.90;0.80;;;;;;;;;;101040;301;22578;-32
2023/08/30 11:01:45;;;;;;;1.20;0.90;;;;;;;;;;101142;289;22892;-33
2023/08/30 11:04:11;;;;;;;3.40;1.40;;;;;;;;;;101210;300;22587;-35
2023/08/30 11:06:42;;;;;;;1.00;0.90;;;;;;;;;;101081;300;23016;-32
2023/08/30 11:09:07;;;;;;;1.50;0.80;;;;;;;;;;101146;300;24149;-36
2023/08/30 11:11:34;;;;;;;0.90;0.70;;;;;;;;;;101341;301;22595;-33
2023/08/30 11:14:03;;;;;;;3.10;0.70;;;;;;;;;;101054;300;22704;-36
2023/08/30 11:16:29;;;;;;;0.80;0.70;;;;;;;;;;101384;301;22678;-35
2023/08/30 11:18:54;;;;;;;0.30;0.30;;;;;;;;;;101345;300;22583;-35
2023/08/30 11:21:20;;;;;;;0.60;0.40;;;;;;;;;;101318;298;24120;-34
2023/08/30 11:23:46;;;;;;;0.60;0.40;;;;;;;;;;101268;297;22596;-35
2023/08/30 11:26:12;;;;;;;0.80;0.80;;;;;;;;;;101302;298;22692;-32
2023/08/30 11:28:43;;;;;;;0.40;0.40;;;;;;;;;;101454;297;22991;-32
2023/08/30 11:31:09;;;;;;;1.20;0.70;;;;;;;;;;101336;297;25178;-33
2023/08/30 11:33:35;;;;;;;0.70;0.60;;;;;;;;;;101387;297;22886;-36
2023/08/30 11:36:01;;;;;;;0.40;0.30;;;;;;;;;;101383;297;22885;-36
2023/08/30 11:38:26;;;;;;;0.60;0.60;;;;;;;;;;101410;298;24172;-31
2023/08/30 11:40:52;;;;;;;1.50;0.80;;;;;;;;;;101358;297;23171;-35
2023/08/30 11:43:18;;;;;;;0.60;0.60;;;;;;;;;;101314;286;24156;-34
2023/08/30 11:45:43;;;;;;;0.40;0.30;;;;;;;;;;101401;298;24148;-33
2023/08/30 11:48:08;;;;;;;0.60;0.40;;;;;;;;;;101406;298;22580;-35
2023/08/30 11:50:34;;;;;;;0.40;0.30;;;;;;;;;;101339;298;23010;-37
2023/08/30 11:53:00;;;;;;;0.60;0.50;;;;;;;;;;101385;298;22670;-32
2023/08/30 11:55:25;;;;;;;0.30;0.20;;;;;;;;;;101434;298;24168;-32
2023/08/30 11:57:51;;;;;;;0.70;0.30;;;;;;;;;;101407;297;24213;-34
2023/08/30 12:00:18;;;;;;;0.40;0.30;;;;;;;;;;101310;298;22676;-33
2023/08/30 12:02:44;;;;;;;0.40;0.30;;;;;;;;;;101363;286;22900;-33
2023/08/30 12:05:13;;;;;;;0.30;0.30;;;;;;;;;;101488;298;24146;-33
2023/08/30 12:07:40;;;;;;;0.80;0.70;;;;;;;;;;101425;298;22995;-37
2023/08/30 12:10:06;;;;;;;0.90;0.50;;;;;;;;;;101495;298;22889;-36
2023/08/30 12:12:31;;;;;;;0.50;0.40;;;;;;;;;;101459;298;22668;-34
2023/08/30 12:14:57;;;;;;;1.80;1.00;;;;;;;;;;101471;298;23160;-36
2023/08/30 12:17:23;;;;;;;0.90;0.80;;;;;;;;;;101290;285;22618;-32
2023/08/30 12:19:55;;;;;;;1.30;0.80;;;;;;;;;;101488;298;22592;-33
2023/08/30 12:22:21;;;;;;;1.20;0.90;;;;;;;;;;101448;298;25182;-31
2023/08/30 12:24:46;;;;;;;0.90;0.80;;;;;;;;;;101387;297;24212;-40
2023/08/30 12:27:13;;;;;;;1.00;0.70;;;;;;;;;;101323;298;22578;-31
2023/08/30 12:29:38;;;;;;;1.80;1.20;;;;;;;;;;101282;298;22810;-32
2023/08/30 12:32:04;;;;;;;0.70;0.60;;;;;;;;;;101251;298;24149;-35
2023/08/30 13:17:47;;;;;;;0.90;0.80;;;;;;;-99.35;19.20;19693.06;19513;288;8045683;-32
2023/08/30 13:20:14;;;;;;;1.10;0.90;;;;;;;-128.00;-1.00;-1.00;18452;296;7504775;-32
2023/08/30 13:22:40;;;;;;;1.20;1.00;;;;;;;-128.00;-1.00;-1.00;18887;295;7504970;-33
2023/08/30 13:25:07;;;;;;;1.10;0.90;;;;;;;-128.00;-1.00;-1.00;18888;295;7504816;-32
2023/08/30 13:27:33;;;;;;;1.30;0.90;;;;;;;-128.00;-1.00;-1.00;18504;299;7505973;-32
2023/08/30 13:29:59;;;;;;;1.50;1.00;;;;;;;-128.00;-1.00;-1.00;18874;295;7505211;-32
2023/08/30 13:32:25;;;;;;;1.10;1.00;;;;;;;-128.00;-1.00;-1.00;18861;319;7504332;-33
2023/08/30 13:34:52;;;;;;;1.50;1.30;;;;;;;-128.00;-1.00;-1.00;18901;295;7504543;-33
2023/08/30 13:37:18;;;;;;;1.80;1.20;;;;;;;-128.00;-1.00;-1.00;18876;347;7505311;-36
2023/08/30 13:39:45;;;;;;;1.40;1.10;;;;;;;-128.00;-1.00;-1.00;18892;299;7505111;-36
2023/08/30 13:42:12;;;;;;;1.30;1.10;;;;;;;-128.00;-1.00;-1.00;18469;295;7504334;-33
2023/08/30 13:44:37;;;;;;;1.00;0.90;;;;;;;-128.00;-1.00;-1.00;18496;340;7504171;-35
2023/08/30 13:47:04;;;;;;;0.90;0.90;;;;;;;-128.00;-1.00;-1.00;18517;295;7506192;-36